Time;durP1;ratioP1;P1;durP2;ratioP2;P2;SDS_P1;SDS_P2;PMS_P1;PMS_P2;Temp;Humidity;BMP_temperature;BMP_pressure;BME280_temperature;BME280_humidity;BME280_pressure;Samples;Min_cycle;Max_cycle;Signal;HPM_P1;HPM_P2
2021/05/10 00:01:26;;;;;;;;;;;;;;;9.53;100.00;96910.97;5072789;28;19921;-74
2021/05/10 00:03:53;;;;;;;;;;;;;;;9.48;100.00;96913.63;5072932;28;20296;-74
2021/05/10 00:06:20;;;;;;;;;;;;;;;9.53;100.00;96921.34;5072964;28;19950;-73
2021/05/10 00:08:47;;;;;;;;;;;;;;;9.50;100.00;96923.06;5072993;28;20279;-74
2021/05/10 00:11:15;;;;;;;;;;;;;;;9.52;100.00;96914.22;5072784;28;20100;-73
2021/05/10 00:13:47;;;;;;;;;;;;;;;9.51;100.00;96916.22;5073046;28;20334;-74
2021/05/10 00:16:14;;;;;;;;;;;;;;;9.52;100.00;96908.66;5073098;28;19924;-74
2021/05/10 00:18:41;;;;;;;;;;;;;;;9.52;100.00;96914.22;5071606;28;19920;-74
2021/05/10 00:21:08;;;;;;;;;;;;;;;9.54;100.00;96906.19;5071692;28;19927;-74
2021/05/10 00:23:34;;;;;;;;;;;;;;;9.54;100.00;96914.53;5072889;28;19966;-74
2021/05/10 00:26:01;;;;;;;;;;;;;;;9.51;100.00;96907.13;5072537;28;19920;-73
2021/05/10 00:28:28;;;;;;;;;;;;;;;9.53;100.00;96910.19;5072963;28;19928;-74
2021/05/10 00:30:55;;;;;;;;;;;;;;;9.49;100.00;96915.16;5072645;28;19943;-74
2021/05/10 00:33:21;;;;;;;;;;;;;;;9.42;100.00;96918.28;5072786;28;19948;-74
2021/05/10 00:35:48;;;;;;;;;;;;;;;9.35;100.00;96919.38;5072568;28;19920;-74
2021/05/10 00:38:15;;;;;;;;;;;;;;;9.31;100.00;96917.97;5072783;28;19920;-74
2021/05/10 00:40:41;;;;;;;;;;;;;;;9.36;100.00;96920.16;5072819;28;20026;-74
2021/05/10 00:43:08;;;;;;;;;;;;;;;9.28;100.00;96918.91;5071536;28;19924;-74
2021/05/10 00:45:35;;;;;;;;;;;;;;;9.26;100.00;96932.53;5072696;28;19925;-74
2021/05/10 00:48:02;;;;;;;;;;;;;;;9.37;100.00;96935.63;5071041;28;19929;-74
2021/05/10 00:50:29;;;;;;;;;;;;;;;9.37;100.00;96943.97;5072425;28;19951;-73
2021/05/10 00:52:56;;;;;;;;;;;;;;;9.32;100.00;96944.59;5072401;28;19920;-74
2021/05/10 00:55:22;;;;;;;;;;;;;;;9.22;100.00;96951.44;5072487;28;19927;-74
2021/05/10 00:57:53;;;;;;;;;;;;;;;9.16;100.00;96948.50;5072595;28;19967;-74
2021/05/10 01:00:25;;;;;;;;;;;;;;;9.14;100.00;96964.88;5072543;28;20310;-74
2021/05/10 01:03:07;;;;;;;;;;;;;;;9.08;100.00;96970.31;5074527;28;19943;-74
2021/05/10 01:05:36;;;;;;;;;;;;;;;9.16;100.00;96954.81;5076047;28;19920;-74
2021/05/10 01:08:04;;;;;;;;;;;;;;;9.15;100.00;96956.06;5091248;28;19963;-73
2021/05/10 01:10:31;;;;;;;;;;;;;;;9.21;100.00;96952.69;5075806;28;20279;-73
2021/05/10 01:12:57;;;;;;;;;;;;;;;9.16;100.00;96946.47;5074896;28;19925;-73
2021/05/10 01:15:26;;;;;;;;;;;;;;;9.18;100.00;96946.78;5075761;28;20014;-74
2021/05/10 01:17:53;;;;;;;;;;;;;;;9.13;100.00;96952.97;5074540;28;20363;-74
2021/05/10 01:20:21;;;;;;;;;;;;;;;9.15;100.00;96947.72;5075777;28;19920;-74
2021/05/10 01:22:49;;;;;;;;;;;;;;;9.08;100.00;96942.47;5061584;28;19993;-74
2021/05/10 01:25:17;;;;;;;;;;;;;;;9.01;100.00;96953.91;5075763;28;19920;-74
2021/05/10 01:27:44;;;;;;;;;;;;;;;8.96;100.00;96974.03;5074219;28;20295;-73
2021/05/10 01:30:21;;;;;;;;;;;;;;;9.00;100.00;96979.41;5074275;28;20321;-73
2021/05/10 01:32:48;;;;;;;;;;;;;;;9.05;100.00;96970.47;5075474;28;19958;-73
2021/05/10 01:35:16;;;;;;;;;;;;;;;9.05;100.00;96976.81;5075654;28;19924;-74
2021/05/10 01:37:43;;;;;;;;;;;;;;;9.06;100.00;96972.78;5107683;28;20414;-73
2021/05/10 01:40:11;;;;;;;;;;;;;;;9.07;100.00;96985.47;5074278;28;20331;-74
2021/05/10 01:42:38;;;;;;;;;;;;;;;9.01;100.00;96992.88;5075223;28;19920;-74
2021/05/10 01:45:06;;;;;;;;;;;;;;;8.98;100.00;96996.59;5075338;28;21251;-74
2021/05/10 01:47:33;;;;;;;;;;;;;;;9.01;100.00;96992.88;5075519;28;19920;-74
2021/05/10 01:49:59;;;;;;;;;;;;;;;9.01;100.00;96992.88;5075127;28;19931;-74
2021/05/10 01:52:26;;;;;;;;;;;;;;;9.00;100.00;97005.28;5074998;28;19966;-75
2021/05/10 01:54:53;;;;;;;;;;;;;;;8.93;100.00;97019.50;5075104;28;19921;-74
2021/05/10 01:57:20;;;;;;;;;;;;;;;8.99;100.00;97016.88;5075005;28;19924;-74
2021/05/10 01:59:47;;;;;;;;;;;;;;;9.04;100.00;97024.63;5074953;28;19950;-74
2021/05/10 02:02:14;;;;;;;;;;;;;;;9.04;100.00;97028.16;5074955;28;20271;-74
2021/05/10 02:05:00;;;;;;;;;;;;;;;9.04;100.00;97039.31;5074991;28;20378;-74
2021/05/10 02:07:27;;;;;;;;;;;;;;;9.00;100.00;97044.28;5074766;28;20042;-74
2021/05/10 02:09:53;;;;;;;;;;;;;;;9.09;100.00;97054.66;5074801;28;20371;-74
2021/05/10 02:12:20;;;;;;;;;;;;;;;9.08;100.00;97062.25;5074662;28;20291;-74
2021/05/10 02:14:47;;;;;;;;;;;;;;;9.14;100.00;97067.97;5074170;28;19920;-74
2021/05/10 02:17:13;;;;;;;;;;;;;;;9.14;100.00;97067.97;5074493;28;19921;-74
2021/05/10 02:19:40;;;;;;;;;;;;;;;9.15;100.00;97061.94;5107382;28;19920;-74
2021/05/10 02:22:07;;;;;;;;;;;;;;;9.07;100.00;97069.03;5074318;28;20375;-74
2021/05/10 02:24:36;;;;;;;;;;;;;;;9.05;100.00;97054.03;5074442;28;20363;-74
2021/05/10 02:27:04;;;;;;;;;;;;;;;9.03;100.00;97048.13;5074777;28;19920;-74
2021/05/10 02:29:31;;;;;;;;;;;;;;;8.98;100.00;97043.19;5074340;28;19927;-74
2021/05/10 02:31:58;;;;;;;;;;;;;;;8.96;100.00;97045.66;5074320;28;19921;-75
2021/05/10 02:34:25;;;;;;;;;;;;;;;8.94;100.00;97050.91;5074390;28;19920;-74
2021/05/10 02:36:52;;;;;;;;;;;;;;;8.92;100.00;97056.19;5072919;28;19968;-74
2021/05/10 02:39:18;;;;;;;;;;;;;;;8.91;100.00;97055.38;5074204;28;19920;-74
2021/05/10 02:41:45;;;;;;;;;;;;;;;8.92;100.00;97045.78;5106685;28;19926;-74
2021/05/10 02:44:11;;;;;;;;;;;;;;;8.92;100.00;97045.78;5074124;28;20364;-74
2021/05/10 02:46:38;;;;;;;;;;;;;;;8.89;100.00;97041.13;5074240;28;19927;-74
2021/05/10 02:49:05;;;;;;;;;;;;;;;8.89;100.00;97045.97;5072753;28;19924;-74
2021/05/10 02:51:32;;;;;;;;;;;;;;;8.83;100.00;97042.97;5073802;28;20370;-74
2021/05/10 02:54:18;;;;;;;;;;;;;;;8.83;100.00;97037.41;5059237;28;20368;-74
2021/05/10 02:56:45;;;;;;;;;;;;;;;8.88;100.00;97036.81;5072522;28;20372;-74
2021/05/10 02:59:12;;;;;;;;;;;;;;;8.85;100.00;97045.31;5106777;28;20011;-74
2021/05/10 03:01:38;;;;;;;;;;;;;;;8.86;100.00;97041.31;5073664;28;19927;-74
2021/05/10 03:04:05;;;;;;;;;;;;;;;8.84;100.00;97050.13;5073474;28;19955;-73
2021/05/10 03:06:32;;;;;;;;;;;;;;;8.84;100.00;97055.69;5072631;28;19920;-74
2021/05/10 03:08:59;;;;;;;;;;;;;;;8.81;100.00;97051.03;5073591;28;19921;-74
2021/05/10 03:11:25;;;;;;;;;;;;;;;8.82;100.00;97058.16;5073692;28;19920;-74
2021/05/10 03:13:53;;;;;;;;;;;;;;;8.86;100.00;97061.56;5073637;28;20011;-74
2021/05/10 03:16:19;;;;;;;;;;;;;;;8.83;100.00;97059.69;5073762;28;19931;-74
2021/05/10 03:18:46;;;;;;;;;;;;;;;8.90;100.00;97064.22;5072061;28;19943;-74
2021/05/10 03:21:12;;;;;;;;;;;;;;;8.87;100.00;97056.78;5073628;28;19990;-74
2021/05/10 03:23:39;;;;;;;;;;;;;;;8.86;100.00;97058.78;5073691;28;19931;-74
2021/05/10 03:26:05;;;;;;;;;;;;;;;8.92;100.00;97059.72;5105125;28;20359;-74
2021/05/10 03:28:32;;;;;;;;;;;;;;;8.88;100.00;97061.88;5073574;28;20005;-74
2021/05/10 03:30:59;;;;;;;;;;;;;;;8.84;100.00;97061.25;5073374;28;19942;-74
2021/05/10 03:33:26;;;;;;;;;;;;;;;8.85;100.00;97065.59;5073361;28;19924;-74
2021/05/10 03:35:52;;;;;;;;;;;;;;;8.85;100.00;97062.81;5073387;28;19921;-74
2021/05/10 03:38:19;;;;;;;;;;;;;;;8.87;100.00;97067.91;5073492;28;19928;-74
2021/05/10 03:40:45;;;;;;;;;;;;;;;8.83;100.00;97076.41;5073430;28;19920;-74
2021/05/10 03:43:12;;;;;;;;;;;;;;;8.81;100.00;97073.31;5073301;28;19926;-74
2021/05/10 03:45:39;;;;;;;;;;;;;;;8.85;100.00;97068.38;5088795;28;19920;-74
2021/05/10 03:48:06;;;;;;;;;;;;;;;8.84;100.00;97075.19;5073092;28;19959;-74
2021/05/10 03:50:32;;;;;;;;;;;;;;;8.84;100.00;97066.84;5072000;28;20394;-74
2021/05/10 03:52:59;;;;;;;;;;;;;;;8.74;100.00;97068.00;5073212;28;20319;-74
2021/05/10 03:55:26;;;;;;;;;;;;;;;8.66;100.00;97063.97;5073250;28;20007;-74
2021/05/10 03:57:53;;;;;;;;;;;;;;;8.75;100.00;97052.84;5075287;28;19924;-74
2021/05/10 04:00:20;;;;;;;;;;;;;;;8.72;100.00;97053.78;5093219;28;19967;-74
2021/05/10 04:02:47;;;;;;;;;;;;;;;8.84;100.00;97058.47;5087849;28;19920;-74
2021/05/10 04:11:02;;;;;;;;;;;;;;;8.90;100.00;97053.06;5092663;28;19927;-74
2021/05/10 04:13:42;;;;;;;;;;;;;;;9.00;100.00;97068.56;5070517;28;19927;-74
2021/05/10 04:16:09;;;;;;;;;;;;;;;8.99;100.00;97055.88;5093058;28;19927;-74
2021/05/10 04:18:35;;;;;;;;;;;;;;;8.97;100.00;97053.53;5081914;28;19974;-74
2021/05/10 04:21:02;;;;;;;;;;;;;;;8.94;100.00;97051.69;5087388;28;19930;-74
2021/05/10 04:23:29;;;;;;;;;;;;;;;8.95;100.00;97053.22;5093407;28;19927;-74
2021/05/10 04:25:55;;;;;;;;;;;;;;;8.92;100.00;97054.16;5093514;28;19930;-74
2021/05/10 04:28:23;;;;;;;;;;;;;;;8.92;100.00;97056.94;5072718;28;19920;-74
2021/05/10 04:30:50;;;;;;;;;;;;;;;8.94;100.00;97065.59;5084418;28;20398;-74
2021/05/10 04:33:27;;;;;;;;;;;;;;;8.93;100.00;97063.28;5092815;28;20405;-74
2021/05/10 04:35:54;;;;;;;;;;;;;;;8.98;100.00;97069.00;5093170;28;19920;-74
2021/05/10 04:38:21;;;;;;;;;;;;;;;8.88;100.00;97070.22;5095576;28;19933;-74
2021/05/10 04:40:47;;;;;;;;;;;;;;;8.92;100.00;97070.84;5096953;28;19924;-74
2021/05/10 04:43:14;;;;;;;;;;;;;;;8.99;100.00;97078.94;5096834;28;19920;-74
2021/05/10 04:45:41;;;;;;;;;;;;;;;9.02;100.00;97083.59;5096646;28;19920;-74
2021/05/10 04:48:07;;;;;;;;;;;;;;;9.02;100.00;97083.59;5081424;28;19924;-74
2021/05/10 04:50:34;;;;;;;;;;;;;;;9.02;100.00;97089.16;5074419;28;19920;-74
2021/05/10 04:53:00;;;;;;;;;;;;;;;9.10;100.00;97089.63;5088201;28;19920;-74
2021/05/10 04:55:27;;;;;;;;;;;;;;;9.10;100.00;97093.19;5096689;28;19919;-74
2021/05/10 04:57:54;;;;;;;;;;;;;;;9.08;100.00;97084.53;5096618;28;20006;-74
2021/05/10 05:00:21;;;;;;;;;;;;;;;9.12;100.00;97093.50;5080946;28;20325;-73
2021/05/10 05:02:47;;;;;;;;;;;;;;;9.12;100.00;97092.72;5096581;28;20387;-74
2021/05/10 05:05:14;;;;;;;;;;;;;;;9.14;100.00;97085.47;5081348;28;19954;-74
2021/05/10 05:07:42;;;;;;;;;;;;;;;9.19;100.00;97089.66;5089091;28;19931;-74
2021/05/10 05:10:10;;;;;;;;;;;;;;;9.18;100.00;97094.44;5087927;28;20001;-74
2021/05/10 05:12:39;;;;;;;;;;;;;;;9.23;100.00;97092.28;5096346;28;20409;-74
2021/05/10 05:15:07;;;;;;;;;;;;;;;9.27;100.00;97101.28;5096167;28;20484;-74
2021/05/10 05:17:34;;;;;;;;;;;;;;;9.24;100.00;97093.84;5095990;28;20015;-74
2021/05/10 05:20:01;;;;;;;;;;;;;;;9.28;100.00;97092.47;5086198;28;19931;-74
2021/05/10 05:22:27;;;;;;;;;;;;;;;9.25;100.00;97095.38;5075236;28;19993;-74
2021/05/10 05:24:57;;;;;;;;;;;;;;;9.24;100.00;97093.84;5087870;28;20384;-74
2021/05/10 05:27:25;;;;;;;;;;;;;;;9.27;100.00;97087.34;5089766;28;20385;-74
2021/05/10 05:29:52;;;;;;;;;;;;;;;9.17;100.00;97094.91;5095750;28;20011;-74
2021/05/10 05:32:20;;;;;;;;;;;;;;;9.29;100.00;97087.66;5092158;28;19924;-74
2021/05/10 05:34:47;;;;;;;;;;;;;;;9.32;100.00;97089.50;5092577;28;19999;-74
2021/05/10 05:37:14;;;;;;;;;;;;;;;9.34;100.00;97089.84;5092871;28;20264;-74
2021/05/10 05:39:40;;;;;;;;;;;;;;;9.43;100.00;97095.41;5085718;28;19963;-74
2021/05/10 05:42:07;;;;;;;;;;;;;;;9.48;100.00;97089.22;5093414;28;19920;-75
2021/05/10 05:44:36;;;;;;;;;;;;;;;9.57;100.00;97100.41;5092783;28;19924;-74
2021/05/10 05:47:06;;;;;;;;;;;;;;;9.55;100.00;97095.28;5088762;28;20314;-75
2021/05/10 05:49:34;;;;;;;;;;;;;;;9.66;100.00;97094.81;5073799;28;19921;-74
2021/05/10 05:52:05;;;;;;;;;;;;;;;9.67;100.00;97090.78;5075234;28;19928;-74
2021/05/10 05:54:34;;;;;;;;;;;;;;;9.58;100.00;97093.56;5075264;28;20437;-74
2021/05/10 05:57:01;;;;;;;;;;;;;;;9.61;100.00;97089.84;5073870;28;19927;-73
2021/05/10 05:59:29;;;;;;;;;;;;;;;9.60;100.00;97099.47;5074882;28;19920;-73
2021/05/10 06:01:56;;;;;;;;;;;;;;;9.59;100.00;97093.09;5075011;28;19985;-74
2021/05/10 06:04:23;;;;;;;;;;;;;;;9.47;100.00;97093.25;5075752;28;19924;-74
2021/05/10 06:06:51;;;;;;;;;;;;;;;9.49;100.00;97093.56;5092995;28;19920;-75
2021/05/10 06:09:18;;;;;;;;;;;;;;;9.58;100.00;97104.72;5091002;28;19927;-75
2021/05/10 06:11:45;;;;;;;;;;;;;;;9.63;100.00;97092.97;5093123;28;19956;-75
2021/05/10 06:14:12;;;;;;;;;;;;;;;9.65;100.00;97096.81;5092502;28;19939;-74
2021/05/10 06:16:38;;;;;;;;;;;;;;;9.65;100.00;97090.50;5092842;28;20398;-74
2021/05/10 06:19:06;;;;;;;;;;;;;;;9.63;100.00;97079.81;5093076;28;19926;-75
2021/05/10 06:21:33;;;;;;;;;;;;;;;9.71;100.00;97081.03;5090747;28;19927;-74
2021/05/10 06:24:00;;;;;;;;;;;;;;;9.86;100.00;97084.72;5088371;28;19928;-75
2021/05/10 06:26:27;;;;;;;;;;;;;;;9.95;100.00;97079.16;5089339;28;19920;-75
2021/05/10 06:28:53;;;;;;;;;;;;;;;9.90;100.00;97062.28;5082261;28;19920;-75
2021/05/10 06:31:20;;;;;;;;;;;;;;;9.90;100.00;97057.47;5081868;28;19928;-75
2021/05/10 06:33:47;;;;;;;;;;;;;;;9.87;100.00;97068.78;5090105;28;20397;-75
2021/05/10 06:36:16;;;;;;;;;;;;;;;9.93;100.00;97052.97;5081501;28;20019;-75
2021/05/10 06:38:44;;;;;;;;;;;;;;;9.92;100.00;97054.22;5087464;28;19920;-75
2021/05/10 06:41:11;;;;;;;;;;;;;;;10.10;100.00;97026.31;5091211;28;20387;-74
2021/05/10 06:43:38;;;;;;;;;;;;;;;10.27;100.00;97035.88;5085859;28;20295;-75
2021/05/10 06:46:05;;;;;;;;;;;;;;;10.53;100.00;97031.44;5081119;28;20379;-75
2021/05/10 06:48:34;;;;;;;;;;;;;;;10.67;100.00;97011.22;5088782;28;19920;-75
2021/05/10 06:51:04;;;;;;;;;;;;;;;10.75;100.00;97004.78;5061675;28;19927;-75
2021/05/10 06:53:31;;;;;;;;;;;;;;;10.61;100.00;96999.91;5088034;28;20408;-75
2021/05/10 06:55:57;;;;;;;;;;;;;;;10.72;100.00;96988.22;5087830;28;20271;-75
2021/05/10 06:58:24;;;;;;;;;;;;;;;10.68;100.00;96970.84;5080869;28;20325;-75
2021/05/10 07:00:52;;;;;;;;;;;;;;;10.62;100.00;96956.00;5080383;28;19994;-75
2021/05/10 07:03:19;;;;;;;;;;;;;;;10.50;100.00;96946.59;5054523;28;19920;-75
2021/05/10 07:05:46;;;;;;;;;;;;;;;10.45;100.00;96941.66;5059086;28;19923;-74
2021/05/10 07:08:14;;;;;;;;;;;;;;;10.56;100.00;96935.56;5076883;28;19928;-74
2021/05/10 07:10:44;;;;;;;;;;;;;;;10.60;100.00;96936.16;5073392;28;19920;-74
2021/05/10 07:13:11;;;;;;;;;;;;;;;10.63;100.00;96930.38;5073469;28;20288;-74
2021/05/10 07:15:38;;;;;;;;;;;;;;;10.60;100.00;96927.78;5073719;28;20054;-74
2021/05/10 07:18:06;;;;;;;;;;;;;;;10.60;100.00;96925.00;5055658;28;19924;-74
2021/05/10 07:20:33;;;;;;;;;;;;;;;10.62;100.00;96916.91;5073549;28;19920;-75
2021/05/10 07:23:00;;;;;;;;;;;;;;;10.78;100.00;96919.31;5073355;28;19924;-75
2021/05/10 07:25:27;;;;;;;;;;;;;;;10.89;100.00;96913.91;5075982;28;19943;-75
2021/05/10 07:27:54;;;;;;;;;;;;;;;10.95;100.00;96906.44;5073492;28;19927;-75
2021/05/10 07:30:21;;;;;;;;;;;;;;;11.17;100.00;96901.28;5055451;28;19964;-75
2021/05/10 07:32:47;;;;;;;;;;;;;;;11.18;100.00;96900.03;5063195;28;19920;-75
2021/05/10 07:35:14;;;;;;;;;;;;;;;11.16;100.00;96894.16;5072121;28;20387;-75
2021/05/10 07:37:41;;;;;;;;;;;;;;;11.22;100.00;96892.25;5088107;28;20038;-75
2021/05/10 07:40:08;;;;;;;;;;;;;;;11.24;100.00;96886.94;5073619;28;19920;-74
2021/05/10 07:42:35;;;;;;;;;;;;;;;11.25;100.00;96894.09;5072716;28;19943;-75
2021/05/10 07:45:02;;;;;;;;;;;;;;;11.27;100.00;96888.78;5092696;28;19924;-75
2021/05/10 07:47:30;;;;;;;;;;;;;;;11.13;100.00;96875.56;5085038;28;20370;-76
2021/05/10 07:50:00;;;;;;;;;;;;;;;11.35;100.00;96869.59;5074733;28;20350;-77
2021/05/10 07:52:28;;;;;;;;;;;;;;;11.71;100.00;96880.44;5073731;28;19977;-78
2021/05/10 07:54:55;;;;;;;;;;;;;;;12.38;100.00;96864.22;5077127;28;20282;-79
2021/05/10 07:57:22;;;;;;;;;;;;;;;12.64;100.00;96867.88;5081007;28;19920;-79
2021/05/10 07:59:50;;;;;;;;;;;;;;;13.63;100.00;96853.47;5086338;28;19924;-78
2021/05/10 08:02:19;;;;;;;;;;;;;;;13.67;100.00;96845.59;5057317;28;19977;-78
2021/05/10 08:04:46;;;;;;;;;;;;;;;13.51;100.00;96843.41;5055862;28;19921;-78
2021/05/10 08:07:13;;;;;;;;;;;;;;;13.26;100.00;96841.34;5069206;28;20002;-82
2021/05/10 08:09:40;;;;;;;;;;;;;;;12.56;100.00;96849.94;5063799;28;20007;-83
2021/05/10 08:12:07;;;;;;;;;;;;;;;12.39;100.00;96848.94;5087431;28;19931;-78
2021/05/10 08:14:34;;;;;;;;;;;;;;;12.36;100.00;96847.13;5072716;28;19944;-79
2021/05/10 08:17:02;;;;;;;;;;;;;;;12.46;100.00;96836.56;5073678;28;20011;-79
2021/05/10 08:19:29;;;;;;;;;;;;;;;12.17;100.00;96836.66;5080701;28;20345;-78
2021/05/10 08:21:56;;;;;;;;;;;;;;;12.27;100.00;96838.84;5088657;28;20294;-81
2021/05/10 08:24:23;;;;;;;;;;;;;;;12.18;100.00;96835.38;5074181;28;19927;-86
2021/05/10 08:26:49;;;;;;;;;;;;;;;12.87;100.00;96838.09;5064725;28;20634;-86
2021/05/10 08:29:17;;;;;;;;;;;;;;;13.15;100.00;96836.41;5074902;28;19923;-82
2021/05/10 08:31:45;;;;;;;;;;;;;;;13.23;100.00;96831.13;5075339;28;20295;-79
2021/05/10 08:34:14;;;;;;;;;;;;;;;12.86;100.00;96835.78;5081140;28;19924;-79
2021/05/10 08:36:41;;;;;;;;;;;;;;;12.23;100.00;96823.50;5079595;28;20013;-79
2021/05/10 08:39:09;;;;;;;;;;;;;;;11.76;100.00;96838.59;5072555;28;20248;-78
2021/05/10 08:41:39;;;;;;;;;;;;;;;11.89;100.00;96843.88;5071401;28;20547;-78
2021/05/10 08:44:07;;;;;;;;;;;;;;;12.11;100.00;96833.00;5073507;28;19924;-79
2021/05/10 08:46:35;;;;;;;;;;;;;;;12.21;100.00;96838.00;5074845;28;19966;-77
2021/05/10 08:49:01;;;;;;;;;;;;;;;11.98;100.00;96846.56;5074772;28;19928;-76
2021/05/10 08:51:31;;;;;;;;;;;;;;;11.72;100.00;96840.78;5076026;28;20360;-77
2021/05/10 08:53:58;;;;;;;;;;;;;;;11.51;100.00;96836.34;5074875;28;20023;-78
2021/05/10 08:56:25;;;;;;;;;;;;;;;11.60;100.00;96839.03;5074519;28;19931;-78
2021/05/10 08:58:51;;;;;;;;;;;;;;;11.75;100.00;96853.84;5081940;28;19943;-78
2021/05/10 09:01:21;;;;;;;;;;;;;;;11.55;100.00;96844.53;5082921;28;20011;-77
2021/05/10 09:03:49;;;;;;;;;;;;;;;11.64;100.00;96850.84;5075877;28;20017;-77
2021/05/10 09:06:19;;;;;;;;;;;;;;;11.77;100.00;96848.50;5076090;28;20363;-77
2021/05/10 09:08:47;;;;;;;;;;;;;;;11.94;100.00;96852.34;5076460;28;19931;-77
2021/05/10 09:11:15;;;;;;;;;;;;;;;12.18;100.00;96852.19;5086742;28;20261;-77
2021/05/10 09:13:43;;;;;;;;;;;;;;;12.43;100.00;96857.16;5093769;28;19978;-76
2021/05/10 09:16:11;;;;;;;;;;;;;;;12.86;100.00;96849.81;5088419;28;20345;-77
2021/05/10 09:18:38;;;;;;;;;;;;;;;12.74;100.00;96835.66;5075843;28;19921;-77
2021/05/10 09:21:11;;;;;;;;;;;;;;;12.73;100.00;96841.75;5075439;28;19920;-77
2021/05/10 09:23:40;;;;;;;;;;;;;;;13.09;100.00;96854.41;5074671;28;20375;-77
2021/05/10 09:26:07;;;;;;;;;;;;;;;13.37;100.00;96850.69;5074368;28;19928;-75
2021/05/10 09:28:38;;;;;;;;;;;;;;;13.42;100.00;96833.09;5074637;28;19920;-75
2021/05/10 09:31:06;;;;;;;;;;;;;;;13.45;100.00;96836.97;5075186;28;20011;-76
2021/05/10 09:33:47;;;;;;;;;;;;;;;12.90;100.00;96847.56;5075607;28;20381;-75
2021/05/10 09:36:35;;;;;;;;;;;;;;;13.03;100.00;96845.19;5074868;28;19920;-75
2021/05/10 09:39:05;;;;;;;;;;;;;;;13.20;100.00;96852.53;5075416;28;19924;-75
2021/05/10 09:41:33;;;;;;;;;;;;;;;13.70;100.00;96850.19;5075470;28;19924;-75
2021/05/10 09:44:06;;;;;;;;;;;;;;;13.52;100.00;96839.31;5075200;28;19924;-75
2021/05/10 09:46:36;;;;;;;;;;;;;;;13.37;100.00;96833.06;5074694;28;20040;-75
2021/05/10 09:49:04;;;;;;;;;;;;;;;13.64;100.00;96832.56;5075078;28;19924;-75
2021/05/10 09:51:31;;;;;;;;;;;;;;;13.31;100.00;96849.06;5073734;28;20006;-75
2021/05/10 09:53:59;;;;;;;;;;;;;;;13.67;100.00;96839.97;5074720;28;20482;-75
2021/05/10 09:58:54;;;;;;;;;;;;;;;14.65;100.00;96841.97;5087825;28;20404;-75
2021/05/10 10:01:21;;;;;;;;;;;;;;;14.31;100.00;96826.94;5080753;28;19931;-75
2021/05/10 10:03:50;;;;;;;;;;;;;;;13.98;100.00;96845.59;5076069;28;19956;-76
2021/05/10 10:06:18;;;;;;;;;;;;;;;14.59;100.00;96849.59;5092792;28;19919;-76
2021/05/10 10:08:45;;;;;;;;;;;;;;;14.54;100.00;96853.13;5114485;27;19955;-76
2021/05/10 10:11:13;;;;;;;;;;;;;;;15.17;100.00;96842.44;5079043;28;20010;-75
2021/05/10 10:13:40;;;;;;;;;;;;;;;15.51;100.00;96850.47;5109193;27;19996;-76
2021/05/10 10:16:07;;;;;;;;;;;;;;;15.17;100.00;96848.81;5086483;28;19924;-76
2021/05/10 10:18:38;;;;;;;;;;;;;;;14.13;100.00;96849.03;5074481;28;20001;-75
2021/05/10 10:21:09;;;;;;;;;;;;;;;14.36;100.00;96848.69;5078651;28;20464;-76
2021/05/10 10:23:37;;;;;;;;;;;;;;;14.50;100.00;96852.59;5106824;28;19920;-76
2021/05/10 10:26:09;;;;;;;;;;;;;;;14.29;100.00;96854.00;5074192;28;19993;-75
2021/05/10 10:28:37;;;;;;;;;;;;;;;14.52;100.00;96845.19;5073000;28;20350;-76
2021/05/10 10:31:14;;;;;;;;;;;;;;;14.82;100.00;96854.06;5073352;28;19920;-75
2021/05/10 10:33:47;;;;;;;;;;;;;;;15.16;100.00;96829.66;5079566;28;20012;-75
2021/05/10 10:36:27;;;;;;;;;;;;;;;14.96;100.00;96833.41;5087965;28;19920;-75
2021/05/10 10:39:13;;;;;;;;;;;;;;;15.56;100.00;96852.53;5078822;28;19920;-75
2021/05/10 10:41:52;;;;;;;;;;;;;;;15.47;100.00;96849.94;5073403;28;19926;-75
2021/05/10 10:44:27;;;;;;;;;;;;;;;15.54;100.00;96837.44;5085310;28;20384;-75
2021/05/10 10:46:53;;;;;;;;;;;;;;;15.28;100.00;96834.03;5087102;28;20474;-78
2021/05/10 10:49:36;;;;;;;;;;;;;;;15.44;100.00;96845.34;5069281;28;19932;-82
2021/05/10 10:52:14;;;;;;;;;;;;;;;15.58;100.00;96844.34;5075152;28;19920;-81
2021/05/10 10:54:40;;;;;;;;;;;;;;;15.58;100.00;96838.72;5081851;28;19928;-81
2021/05/10 10:57:07;;;;;;;;;;;;;;;15.37;100.00;96845.81;5071195;28;19924;-81
2021/05/10 10:59:36;;;;;;;;;;;;;;;15.36;100.00;96844.25;5068575;28;19920;-80
2021/05/10 11:02:16;;;;;;;;;;;;;;;15.22;100.00;96848.06;5069794;28;19970;-87
2021/05/10 11:04:43;;;;;;;;;;;;;;;15.34;100.00;96838.38;5080105;28;19955;-76
2021/05/10 11:07:10;;;;;;;;;;;;;;;15.57;100.00;96848.44;5073853;28;20378;-77
2021/05/10 11:09:46;;;;;;;;;;;;;;;15.80;100.00;96838.72;5079591;28;20368;-77
2021/05/10 11:12:31;;;;;;;;;;;;;;;15.64;100.00;96835.91;5083358;28;19920;-75
2021/05/10 11:14:58;;;;;;;;;;;;;;;15.75;100.00;96836.66;5068811;28;19927;-76
2021/05/10 11:17:51;;;;;;;;;;;;;;;15.79;100.00;96836.44;5086064;28;19931;-76
2021/05/10 11:20:35;;;;;;;;;;;;;;;15.90;100.00;96844.88;5085786;28;20010;-77
2021/05/10 11:23:21;;;;;;;;;;;;;;;15.55;100.00;96845.38;5076444;28;19960;-76
2021/05/10 11:25:47;;;;;;;;;;;;;;;15.25;100.00;96849.84;5088045;28;19920;-77
2021/05/10 11:28:32;;;;;;;;;;;;;;;15.08;100.00;96846.25;5074677;28;19943;-77
2021/05/10 11:31:07;;;;;;;;;;;;;;;14.69;100.00;96855.78;5073478;28;20466;-76
2021/05/10 11:33:55;;;;;;;;;;;;;;;14.46;100.00;96886.53;5085346;28;20394;-76
2021/05/10 11:36:26;;;;;;;;;;;;;;;13.57;100.00;96855.44;5089650;28;20398;-76
2021/05/10 11:38:56;;;;;;;;;;;;;;;13.66;100.00;96897.38;5082786;28;19928;-76
2021/05/10 11:41:41;;;;;;;;;;;;;;;13.62;100.00;96902.41;5082158;28;19921;-77
2021/05/10 11:44:18;;;;;;;;;;;;;;;13.54;100.00;96901.34;5089277;28;20040;-77
2021/05/10 11:46:50;;;;;;;;;;;;;;;13.36;100.00;96913.63;5070352;28;19924;-77
2021/05/10 11:49:23;;;;;;;;;;;;;;;13.35;100.00;96936.53;5072849;28;19920;-77
2021/05/10 11:51:49;;;;;;;;;;;;;;;13.16;100.00;96943.72;5072951;28;19952;-77
2021/05/10 11:54:16;;;;;;;;;;;;;;;13.51;100.00;96927.56;5073038;28;19920;-77
2021/05/10 11:56:46;;;;;;;;;;;;;;;13.74;100.00;96918.88;5071144;28;20407;-77
2021/05/10 11:59:39;;;;;;;;;;;;;;;13.76;100.00;96916.34;5072007;28;19933;-77
2021/05/10 12:02:26;;;;;;;;;;;;;;;13.52;100.00;96903.84;5071649;28;19927;-77
2021/05/10 12:05:04;;;;;;;;;;;;;;;13.90;100.00;96906.25;5075230;28;19923;-77
2021/05/10 12:07:31;;;;;;;;;;;;;;;14.13;100.00;96902.38;5085551;28;19951;-78
2021/05/10 12:10:03;;;;;;;;;;;;;;;14.47;100.00;96898.56;5083971;28;19927;-77
2021/05/10 12:12:35;;;;;;;;;;;;;;;14.67;100.00;96901.25;5085346;28;19989;-77
2021/05/10 12:15:15;;;;;;;;;;;;;;;14.85;100.00;96906.47;5101177;28;19923;-78
2021/05/10 12:17:44;;;;;;;;;;;;;;;15.28;100.00;96910.72;5090393;28;19963;-78
2021/05/10 12:20:22;;;;;;;;;;;;;;;15.47;100.00;96902.63;5089535;28;19930;-78
2021/05/10 12:22:50;;;;;;;;;;;;;;;15.54;100.00;96916.97;5107358;28;19928;-77
2021/05/10 12:25:23;;;;;;;;;;;;;;;15.80;100.00;96911.94;5123757;28;20337;-78
2021/05/10 12:28:02;;;;;;;;;;;;;;;15.17;100.00;96910.69;5083431;28;19998;-78
2021/05/10 12:30:29;;;;;;;;;;;;;;;15.16;100.00;96908.41;5083852;28;19924;-78
2021/05/10 12:32:57;;;;;;;;;;;;;;;14.97;100.00;96918.53;5065385;28;19930;-78
2021/05/10 12:35:26;;;;;;;;;;;;;;;14.28;100.00;96919.88;5088378;28;19920;-78
2021/05/10 12:37:54;;;;;;;;;;;;;;;14.27;100.00;96924.72;5087930;28;19928;-78
2021/05/10 12:40:22;;;;;;;;;;;;;;;14.06;100.00;96942.13;5087536;28;19960;-78
2021/05/10 12:43:07;;;;;;;;;;;;;;;14.09;100.00;96924.28;5087168;28;19973;-78
2021/05/10 12:45:35;;;;;;;;;;;;;;;13.91;100.00;96930.25;5085413;28;19985;-78
2021/05/10 12:48:12;;;;;;;;;;;;;;;13.94;100.00;96932.06;5084849;28;19977;-78
2021/05/10 12:50:40;;;;;;;;;;;;;;;13.84;100.00;96930.69;5088529;28;19935;-78
2021/05/10 12:53:07;;;;;;;;;;;;;;;14.04;100.00;96936.25;5076679;28;20300;-78
2021/05/10 12:55:35;;;;;;;;;;;;;;;14.24;100.00;96930.56;5060584;28;19927;-78
2021/05/10 12:58:18;;;;;;;;;;;;;;;14.52;100.00;96930.78;5066626;28;19973;-79
2021/05/10 13:00:46;;;;;;;;;;;;;;;14.86;100.00;96924.09;5066915;28;19920;-78